VVTS Airport Information

Runway Information
Runway 07L Length 10000 ft width 148 ft
Elevation 24 ft Threshold 0 ft Heading 69
Runway 25R Length 10000 ft Width 148 ft
Elevation 32 ft Threshold 0 ft Heading 249
Runway 07R Length 12468 ft width 148 ft
Elevation 24 ft Threshold 2431 ft Heading 69
Runway 25L Length 12468 ft Width 148 ft
Elevation 32 ft Threshold 0 ft Heading 249
Airport Frequencies
Type APP Name APP Frequency 125.5 MHZ
Type ATIS Name ATIS Frequency 128 MHZ
Type GND Name GND Frequency 121.9 MHZ
Type TWR Name TWR Frequency 118.7 MHZ
Airport Navaids
Type NDB Name Tansonnhat Frequency 343 KHZ
Type NDB Name Tansonnhat Frequency 375 KHZ
Type NDB Name Tansonnhat Frequency 326 KHZ
Type NDB Name Tansonnhat Frequency 358 KHZ
Type VOR-DME Name Tansonnhat Frequency 116700 KHZ
Airport Weather Information & NOTAM
ADDS - METARS form results

(1810 UTC 22 March 2019)
Data provider http://aviationweather.gov/metar/data/
 
METAR text: VVTS 221800Z 17005KT 9999 FEW020 28/26 Q1009 NOSIG
Conditions at: VVTS (HO CHI MINH/TANS, VN) observed 1800 UTC 22 March 2019
Temperature: 28.0°C (82°F)
Dewpoint: 26.0°C (79°F) [RH = 89%]
Pressure (altimeter): 29.79 inches Hg (1009.0 mb)
Winds: from the S (170 degrees) at 6 MPH (5 knots; 2.6 m/s)
Visibility: 6 or more miles (10+ km)
Ceiling: at least 12,000 feet AGL
Clouds: few clouds at 2000 feet AGL
Weather: no significant weather observed at this time

METAR text: VVTS 221730Z 16006KT 110V200 9999 FEW020 28/26 Q1010 NOSIG
Conditions at: VVTS (HO CHI MINH/TANS, VN) observed 1730 UTC 22 March 2019
Temperature: 28.0°C (82°F)
Dewpoint: 26.0°C (79°F) [RH = 89%]
Pressure (altimeter): 29.82 inches Hg (1010.0 mb)
Winds: from the SSE (160 degrees) at 7 MPH (6 knots; 3.1 m/s)
Visibility: 6 or more miles (10+ km)
Ceiling: at least 12,000 feet AGL
Clouds: few clouds at 2000 feet AGL
Weather: no significant weather observed at this time

Forecast for: VVTS (HO CHI MINH/TANS, VN)
Text: TAF VVTS 221700Z 2218/2324 15006KT 9999 SCT017
Forecast period: 1800 UTC 22 March 2019 to 0000 UTC 24 March 2019
Forecast type: FROM: standard forecast or significant change
Winds: from the SSE (150 degrees) at 7 MPH (6 knots; 3.1 m/s)
Visibility: 6 or more miles 10+ km)
Ceiling: at least 12,000 feet AGL
Clouds: scattered clouds at 1700 feet AGL
Weather: no significant weather forecast for this period